createdAt,value
2023-04-08T00:00:50.300Z,48.98
2023-04-08T00:03:54.217Z,48.82
2023-04-08T00:06:58.004Z,49.22
2023-04-08T00:10:01.604Z,49.40
2023-04-08T00:13:07.099Z,49.34
2023-04-08T00:16:10.762Z,49.53
2023-04-08T00:19:14.420Z,50.11
2023-04-08T00:22:18.033Z,51.38
2023-04-08T00:25:24.093Z,52.95
2023-04-08T00:28:30.905Z,52.56
2023-04-08T00:31:34.592Z,53.95
2023-04-08T00:34:38.773Z,53.76
2023-04-08T00:37:42.888Z,54.21
2023-04-08T00:40:46.590Z,53.56
2023-04-08T00:43:51.693Z,53.75
2023-04-08T00:46:56.023Z,53.91
2023-04-08T00:49:59.815Z,54.34
2023-04-08T00:53:03.438Z,54.83
2023-04-08T00:56:07.174Z,54.67
2023-04-08T00:59:12.487Z,55.15
2023-04-08T01:02:20.811Z,55.01
2023-04-08T01:05:32.584Z,55.37
2023-04-08T01:08:39.919Z,57.67
2023-04-08T01:11:46.146Z,58.04
2023-04-08T01:14:57.765Z,59.87
2023-04-08T01:18:03.365Z,61.62
2023-04-08T01:21:09.151Z,64.54
2023-04-08T01:24:21.150Z,66.68
2023-04-08T01:27:27.314Z,67.19
2023-04-08T01:30:32.280Z,67.92
2023-04-08T01:33:37.153Z,69.45
2023-04-08T01:36:42.187Z,69.74
2023-04-08T01:39:47.213Z,69.84
2023-04-08T01:42:55.801Z,70.83
2023-04-08T01:46:00.969Z,71.11
2023-04-08T01:49:06.144Z,71.77
2023-04-08T01:52:13.071Z,73.48
2023-04-08T01:55:17.086Z,72.95
2023-04-08T01:58:24.302Z,73.89
2023-04-08T02:01:31.101Z,74.61
2023-04-08T02:04:35.731Z,75.46
2023-04-08T02:07:39.354Z,74.43
2023-04-08T02:10:42.999Z,73.46
2023-04-08T02:13:48.225Z,73.28
2023-04-08T02:16:55.014Z,73.23
2023-04-08T02:20:05.094Z,73.24
2023-04-08T02:23:15.379Z,75.30
2023-04-08T02:26:21.118Z,75.33
2023-04-08T02:29:27.747Z,74.76
2023-04-08T02:32:34.111Z,76.28
2023-04-08T02:35:38.603Z,76.45
2023-04-08T02:38:49.906Z,78.42
2023-04-08T02:41:53.936Z,76.85
2023-04-08T02:45:00.498Z,77.36
2023-04-08T02:48:04.086Z,77.55
2023-04-08T02:51:08.586Z,78.69
2023-04-08T02:54:12.197Z,78.25
2023-04-08T02:57:17.309Z,78.00
2023-04-08T03:00:22.473Z,79.25
2023-04-08T03:03:29.836Z,80.20
2023-04-08T03:06:33.679Z,80.99
2023-04-08T03:09:37.308Z,80.68
2023-04-08T03:12:40.934Z,81.38
2023-04-08T03:15:46.587Z,81.29
2023-04-08T03:18:52.086Z,81.23
2023-04-08T03:21:55.970Z,81.37
2023-04-08T03:24:59.711Z,79.57
2023-04-08T03:28:03.359Z,79.04
2023-04-08T03:31:08.655Z,80.31
2023-04-08T03:34:12.338Z,79.83
2023-04-08T03:37:15.946Z,80.12
2023-04-08T03:40:19.891Z,81.19
2023-04-08T03:43:23.445Z,81.87
2023-04-08T03:46:28.788Z,82.69
2023-04-08T03:49:32.558Z,81.63
2023-04-08T03:52:36.222Z,82.18
2023-04-08T03:55:39.922Z,80.52
2023-04-08T03:58:43.538Z,79.44
2023-04-08T04:01:48.969Z,80.54
2023-04-08T04:04:52.737Z,81.98
2023-04-08T04:07:56.478Z,79.36
2023-04-08T04:11:00.576Z,82.64
2023-04-08T04:14:04.333Z,83.10
2023-04-08T04:17:09.442Z,82.11
2023-04-08T04:20:14.048Z,81.21
2023-04-08T04:23:17.662Z,81.10
2023-04-08T04:26:22.115Z,79.78
2023-04-08T04:29:26.169Z,80.07
2023-04-08T04:32:31.417Z,79.61
2023-04-08T04:35:35.596Z,80.67
2023-04-08T04:38:39.365Z,79.55
2023-04-08T04:41:44.557Z,79.83
2023-04-08T04:44:48.211Z,80.53
2023-04-08T04:47:53.265Z,80.71
2023-04-08T04:50:57.506Z,80.77
2023-04-08T04:54:01.306Z,79.16
2023-04-08T04:57:05.050Z,79.82
2023-04-08T05:00:09.982Z,78.68
2023-04-08T05:03:15.610Z,78.73
2023-04-08T05:06:19.467Z,78.89
2023-04-08T05:09:23.352Z,78.57
2023-04-08T05:12:28.351Z,77.38
2023-04-08T05:15:32.180Z,77.26
2023-04-08T05:18:37.473Z,76.71
2023-04-08T05:21:41.374Z,76.69
2023-04-08T05:24:45.352Z,78.51
2023-04-08T05:27:49.067Z,79.11
2023-04-08T05:30:53.541Z,78.43
2023-04-08T05:33:58.913Z,77.94
2023-04-08T05:37:02.697Z,77.42
2023-04-08T05:40:07.858Z,76.89
2023-04-08T05:43:11.834Z,76.36
2023-04-08T05:46:15.788Z,75.69
2023-04-08T05:49:21.444Z,75.77
2023-04-08T05:52:25.164Z,75.00
2023-04-08T05:55:29.309Z,76.35
2023-04-08T05:58:33.139Z,75.51
2023-04-08T06:01:37.031Z,75.11
2023-04-08T06:04:42.649Z,74.09
2023-04-08T06:07:46.870Z,73.37
2023-04-08T06:10:51.727Z,73.04
2023-04-08T06:13:55.637Z,72.86
2023-04-08T06:16:59.357Z,71.49
2023-04-08T06:20:05.133Z,72.02
2023-04-08T06:23:08.875Z,71.17
2023-04-08T06:26:13.583Z,71.38
2023-04-08T06:29:17.413Z,71.38
2023-04-08T06:32:21.303Z,69.93
2023-04-08T06:35:26.561Z,69.51
2023-04-08T06:38:30.373Z,68.94
2023-04-08T06:41:34.277Z,70.43
2023-04-08T06:44:52.349Z,68.98
2023-04-08T06:47:57.385Z,68.13
2023-04-08T06:51:03.038Z,66.59
2023-04-08T06:54:06.857Z,65.90
2023-04-08T06:57:10.805Z,65.31
2023-04-08T07:00:15.487Z,65.02
2023-04-08T07:03:19.358Z,66.52
2023-04-08T07:06:24.797Z,67.53
2023-04-08T07:09:28.986Z,67.16
2023-04-08T07:12:32.789Z,64.96
2023-04-08T07:15:36.710Z,62.64
2023-04-08T07:18:41.805Z,62.10
2023-04-08T07:21:47.177Z,61.74
2023-04-08T07:24:51.033Z,61.66
2023-04-08T07:27:54.853Z,61.31
2023-04-08T07:30:58.820Z,60.92
2023-04-08T07:34:02.717Z,60.38
2023-04-08T07:37:08.031Z,59.55
2023-04-08T07:40:12.697Z,58.48
2023-04-08T07:43:16.573Z,56.61
2023-04-08T07:46:20.815Z,54.92
2023-04-08T07:49:24.714Z,54.78
2023-04-08T07:52:31.613Z,52.91
2023-04-08T07:55:35.842Z,51.08
2023-04-08T07:58:40.777Z,50.66
2023-04-08T08:01:45.086Z,50.88
2023-04-08T08:04:48.935Z,50.69
2023-04-08T08:07:54.205Z,50.95
2023-04-08T08:10:58.076Z,51.98
2023-04-08T08:14:01.977Z,51.57
2023-04-08T08:17:05.884Z,52.13
2023-04-08T08:20:10.721Z,52.69
2023-04-08T08:23:16.079Z,53.62
2023-04-08T08:26:20.003Z,53.40
2023-04-08T08:29:23.957Z,54.66
2023-04-08T08:32:27.864Z,54.39
2023-04-08T08:35:31.797Z,55.11
2023-04-08T08:38:37.166Z,57.41
2023-04-08T08:41:42.467Z,55.10
2023-04-08T08:44:46.661Z,54.88
2023-04-08T08:47:51.647Z,55.69
2023-04-08T08:50:55.564Z,55.67
2023-04-08T08:54:04.509Z,52.24
2023-04-08T08:57:18.877Z,51.41
2023-04-08T09:00:34.574Z,51.03
2023-04-08T09:03:39.135Z,50.23
2023-04-08T09:06:44.214Z,49.26
2023-04-08T09:09:53.021Z,50.12
2023-04-08T09:12:57.915Z,49.98
2023-04-08T09:16:06.635Z,49.33
2023-04-08T09:19:12.191Z,49.82
2023-04-08T09:22:16.213Z,51.21
2023-04-08T09:25:27.180Z,52.10
2023-04-08T09:28:32.038Z,51.09
2023-04-08T09:31:38.610Z,49.95
2023-04-08T09:34:42.507Z,48.91
2023-04-08T09:37:48.254Z,49.45
2023-04-08T09:40:54.945Z,49.52
2023-04-08T09:44:00.985Z,48.17
2023-04-08T09:47:12.098Z,48.51
2023-04-08T09:50:18.434Z,48.14
2023-04-08T09:53:27.757Z,45.89
2023-04-08T09:56:42.485Z,45.19
2023-04-08T09:59:56.916Z,45.47
2023-04-08T10:03:12.108Z,44.61
2023-04-08T10:06:17.172Z,44.22
2023-04-08T10:09:21.588Z,45.28
2023-04-08T10:12:26.741Z,45.74
2023-04-08T10:15:31.589Z,45.36
2023-04-08T10:18:35.648Z,45.54
2023-04-08T10:21:43.538Z,45.65
2023-04-08T10:25:33.464Z,46.02
2023-04-08T10:28:38.753Z,46.59
2023-04-08T10:31:42.885Z,47.41
2023-04-08T10:34:55.116Z,47.96
2023-04-08T10:37:59.518Z,47.49
2023-04-08T10:41:03.349Z,46.66
2023-04-08T10:44:17.712Z,44.54
2023-04-08T10:47:27.834Z,45.86
2023-04-08T10:50:32.715Z,46.50
2023-04-08T10:53:38.593Z,45.09
2023-04-08T10:56:49.870Z,44.44
2023-04-08T10:59:55.324Z,43.55
2023-04-08T11:03:02.787Z,43.05
2023-04-08T11:06:07.802Z,44.19
2023-04-08T11:09:12.369Z,45.17
2023-04-08T11:12:19.088Z,44.35
2023-04-08T11:15:25.789Z,46.37
2023-04-08T11:18:30.120Z,46.40
2023-04-08T11:21:36.802Z,46.71
2023-04-08T11:24:41.357Z,46.66
2023-04-08T11:27:45.407Z,46.09
2023-04-08T11:30:51.129Z,46.61
2023-04-08T11:33:57.055Z,48.16
2023-04-08T11:37:00.848Z,47.82
2023-04-08T11:40:07.998Z,46.59
2023-04-08T11:43:12.571Z,47.54
2023-04-08T11:46:18.020Z,47.16
2023-04-08T11:49:21.843Z,47.16
2023-04-08T11:52:41.852Z,47.03
2023-04-08T11:55:45.796Z,48.46
2023-04-08T11:58:50.176Z,48.18
2023-04-08T12:01:55.517Z,48.14
2023-04-08T12:04:59.357Z,49.10
2023-04-08T12:08:03.702Z,49.32
2023-04-08T12:11:19.202Z,47.99
2023-04-08T12:14:28.194Z,47.64
2023-04-08T12:17:33.897Z,47.07
2023-04-08T12:20:37.771Z,47.23
2023-04-08T12:23:41.846Z,46.50
2023-04-08T12:26:45.730Z,47.01
2023-04-08T12:29:50.112Z,46.71
2023-04-08T12:32:55.681Z,47.64
2023-04-08T12:35:59.816Z,47.74
2023-04-08T12:39:03.705Z,48.62
2023-04-08T12:42:07.626Z,48.73
2023-04-08T12:45:11.889Z,48.13
2023-04-08T12:48:17.267Z,48.09
2023-04-08T12:51:21.232Z,47.80
2023-04-08T12:54:25.174Z,47.69
2023-04-08T12:57:29.026Z,46.93
2023-04-08T13:00:32.928Z,48.19
2023-04-08T13:03:39.663Z,48.13
2023-04-08T13:06:43.526Z,48.18
2023-04-08T13:09:47.828Z,48.51
2023-04-08T13:12:51.685Z,48.58
2023-04-08T13:15:55.563Z,49.25
2023-04-08T13:19:00.781Z,48.62
2023-04-08T13:22:04.565Z,49.08
2023-04-08T13:25:08.986Z,48.91
2023-04-08T13:28:12.896Z,49.26
2023-04-08T13:31:16.848Z,50.15
2023-04-08T13:34:22.304Z,49.57
2023-04-08T13:37:26.148Z,48.41
2023-04-08T13:40:30.413Z,48.86
2023-04-08T13:43:34.282Z,48.10
2023-04-08T13:46:38.075Z,47.70
2023-04-08T13:49:43.414Z,47.27
2023-04-08T13:52:47.597Z,47.42
2023-04-08T13:55:55.266Z,47.42
2023-04-08T13:58:59.467Z,48.28
2023-04-08T14:02:04.046Z,48.26
2023-04-08T14:05:10.639Z,48.23
2023-04-08T14:08:14.681Z,47.90
2023-04-08T14:11:18.467Z,47.44
2023-04-08T14:14:22.338Z,46.83
2023-04-08T14:17:26.252Z,45.13
2023-04-08T14:20:32.187Z,45.23
2023-04-08T14:23:36.132Z,47.18
2023-04-08T14:26:39.961Z,47.88
2023-04-08T14:29:43.775Z,47.81
2023-04-08T14:32:47.611Z,47.81
2023-04-08T14:35:54.444Z,48.50
2023-04-08T14:38:58.338Z,49.18
2023-04-08T14:42:02.408Z,49.29
2023-04-08T14:45:06.838Z,49.42
2023-04-08T14:48:10.672Z,49.42
2023-04-08T14:51:16.040Z,50.10
2023-04-08T14:54:20.360Z,50.34
2023-04-08T14:57:24.142Z,49.73
2023-04-08T15:00:28.198Z,50.03
2023-04-08T15:03:32.047Z,49.99
2023-04-08T15:06:39.270Z,49.08
2023-04-08T15:09:43.295Z,48.55
2023-04-08T15:12:47.050Z,47.84
2023-04-08T15:15:50.914Z,46.73
2023-04-08T15:18:55.385Z,46.99
2023-04-08T15:22:00.690Z,46.65
2023-04-08T15:25:05.694Z,46.75
2023-04-08T15:28:10.082Z,46.78
2023-04-08T15:31:14.158Z,46.98
2023-04-08T15:34:18.096Z,46.61
2023-04-08T15:37:24.080Z,47.08
2023-04-08T15:40:28.106Z,47.39
2023-04-08T15:43:31.966Z,48.01
2023-04-08T15:46:37.467Z,47.35
2023-04-08T15:49:41.796Z,47.65
2023-04-08T15:52:47.193Z,48.46
2023-04-08T15:55:51.124Z,48.45
2023-04-08T15:58:55.043Z,48.72
2023-04-08T16:01:59.001Z,48.55
2023-04-08T16:05:03.132Z,48.82
2023-04-08T16:08:08.547Z,49.42
2023-04-08T16:11:12.532Z,49.84
2023-04-08T16:14:16.706Z,50.84
2023-04-08T16:17:20.491Z,50.45
2023-04-08T16:20:24.340Z,51.08
2023-04-08T16:23:30.022Z,51.17
2023-04-08T16:26:34.512Z,50.94
2023-04-08T16:29:38.537Z,50.88
2023-04-08T16:32:42.422Z,51.15
2023-04-08T16:35:46.769Z,51.53
2023-04-08T16:38:53.930Z,51.88
2023-04-08T16:41:57.775Z,52.06
2023-04-08T16:45:01.816Z,52.54
2023-04-08T16:48:05.964Z,52.59
2023-04-08T16:51:10.007Z,52.84
2023-04-08T16:54:15.386Z,52.39
2023-04-08T16:57:19.396Z,51.70
2023-04-08T17:00:23.517Z,51.37
2023-04-08T17:03:27.582Z,51.04
2023-04-08T17:06:31.595Z,51.30
2023-04-08T17:09:37.380Z,51.44
2023-04-08T17:12:41.945Z,51.77
2023-04-08T17:15:45.751Z,51.47
2023-04-08T17:18:49.756Z,51.65
2023-04-08T17:21:53.772Z,51.82
2023-04-08T17:24:59.142Z,51.99
2023-04-08T17:28:03.052Z,51.66
2023-04-08T17:31:06.970Z,51.51
2023-04-08T17:34:10.863Z,52.00
2023-04-08T17:37:14.761Z,52.30
2023-04-08T17:40:20.439Z,52.87
2023-04-08T17:43:24.260Z,52.93
2023-04-08T17:46:28.247Z,54.09
2023-04-08T17:49:32.183Z,55.33
2023-04-08T17:52:36.068Z,56.97
2023-04-08T17:55:41.494Z,57.87
2023-04-08T17:58:48.474Z,59.54
2023-04-08T18:01:52.330Z,59.67
2023-04-08T18:04:56.336Z,59.50
2023-04-08T18:08:00.135Z,60.49
2023-04-08T18:11:07.793Z,60.31
2023-04-08T18:14:12.837Z,61.52
2023-04-08T18:17:16.756Z,61.57
2023-04-08T18:20:20.861Z,61.12
2023-04-08T18:23:24.814Z,62.11
2023-04-08T18:26:30.023Z,62.00
2023-04-08T18:29:34.008Z,61.27
2023-04-08T18:32:37.799Z,61.01
2023-04-08T18:35:41.968Z,61.46
2023-04-08T18:38:46.143Z,61.71
2023-04-08T18:41:51.278Z,61.82
2023-04-08T18:44:55.180Z,61.51
2023-04-08T18:47:59.250Z,60.91
2023-04-08T18:51:03.080Z,61.35
2023-04-08T18:54:06.948Z,61.61
2023-04-08T18:57:12.439Z,62.36
2023-04-08T19:00:16.722Z,61.62
2023-04-08T19:03:20.993Z,61.83
2023-04-08T19:06:24.919Z,62.41
2023-04-08T19:09:28.775Z,62.44
2023-04-08T19:12:34.176Z,62.97
2023-04-08T19:15:38.043Z,62.94
2023-04-08T19:18:41.898Z,63.30
2023-04-08T19:21:45.668Z,63.33
2023-04-08T19:24:49.581Z,62.99
2023-04-08T19:27:54.825Z,63.51
2023-04-08T19:30:58.776Z,63.43
2023-04-08T19:34:02.642Z,64.12
2023-04-08T19:37:06.789Z,65.19
2023-04-08T19:40:11.674Z,65.51
2023-04-08T19:43:17.932Z,66.38
2023-04-08T19:46:21.819Z,67.33
2023-04-08T19:49:25.890Z,67.04
2023-04-08T19:52:29.646Z,67.99
2023-04-08T19:55:33.644Z,67.58
2023-04-08T19:58:39.007Z,69.64
2023-04-08T20:01:42.966Z,69.67
2023-04-08T20:04:47.049Z,69.60
2023-04-08T20:07:51.066Z,70.19
2023-04-08T20:10:54.882Z,70.89
2023-04-08T20:14:00.508Z,72.03
2023-04-08T20:17:04.726Z,72.66
2023-04-08T20:20:09.842Z,72.08
2023-04-08T20:23:13.922Z,72.91
2023-04-08T20:26:17.862Z,73.87
2023-04-08T20:29:23.244Z,74.12
2023-04-08T20:32:28.150Z,74.63
2023-04-08T20:35:32.004Z,75.01
2023-04-08T20:38:37.143Z,75.33
2023-04-08T20:41:40.925Z,75.45
2023-04-08T20:44:46.274Z,76.20
2023-04-08T20:47:50.151Z,77.86
2023-04-08T20:50:54.009Z,77.81
2023-04-08T20:53:57.776Z,78.22
2023-04-08T20:57:01.619Z,79.11
2023-04-08T21:00:07.858Z,79.17
2023-04-08T21:03:11.798Z,78.81
2023-04-08T21:06:18.937Z,78.56
2023-04-08T21:09:22.724Z,78.60
2023-04-08T21:12:26.506Z,78.94
2023-04-08T21:15:32.019Z,79.84
2023-04-08T21:18:36.342Z,79.23
2023-04-08T21:21:40.229Z,78.85
2023-04-08T21:24:44.096Z,78.42
2023-04-08T21:27:47.969Z,78.22
2023-04-08T21:30:54.425Z,77.25
2023-04-08T21:33:58.304Z,78.32
2023-04-08T21:37:02.311Z,78.65
2023-04-08T21:40:06.879Z,80.70
2023-04-08T21:43:10.667Z,81.02
2023-04-08T21:46:16.065Z,81.30
2023-04-08T21:49:19.973Z,80.85
2023-04-08T21:52:23.880Z,80.40
2023-04-08T21:55:37.796Z,81.38
2023-04-08T21:58:41.574Z,82.62
2023-04-08T22:01:46.858Z,84.53
2023-04-08T22:04:50.914Z,84.68
2023-04-08T22:07:55.337Z,84.57
2023-04-08T22:10:59.279Z,82.36
2023-04-08T22:14:03.085Z,83.21
2023-04-08T22:17:08.517Z,84.22
2023-04-08T22:20:13.351Z,84.10
2023-04-08T22:23:17.196Z,84.53
2023-04-08T22:26:21.581Z,82.57
2023-04-08T22:29:25.389Z,83.15
2023-04-08T22:32:30.726Z,82.12
2023-04-08T22:35:34.679Z,82.37
2023-04-08T22:38:38.511Z,82.16
2023-04-08T22:41:42.286Z,81.89
2023-04-08T22:44:46.233Z,82.73
2023-04-08T22:47:51.458Z,83.00
2023-04-08T22:50:55.189Z,81.41
2023-04-08T22:53:59.020Z,81.96
2023-04-08T22:57:03.331Z,83.81
2023-04-08T23:00:08.308Z,82.48
2023-04-08T23:03:13.449Z,82.61
2023-04-08T23:06:17.379Z,82.64
2023-04-08T23:09:23.936Z,82.29
2023-04-08T23:12:27.523Z,83.29
2023-04-08T23:15:31.328Z,83.92
2023-04-08T23:18:36.608Z,85.80
2023-04-08T23:21:40.654Z,84.55
2023-04-08T23:24:44.853Z,84.01
2023-04-08T23:27:48.496Z,85.20
2023-04-08T23:30:52.232Z,85.95
2023-04-08T23:33:57.389Z,85.20
2023-04-08T23:37:01.141Z,85.10
2023-04-08T23:40:04.938Z,87.48
2023-04-08T23:43:08.674Z,87.29
2023-04-08T23:46:12.295Z,86.08
2023-04-08T23:49:17.528Z,86.41
2023-04-08T23:52:21.178Z,86.71
2023-04-08T23:55:24.864Z,86.95
2023-04-08T23:58:28.562Z,88.64
